sensor_id;sensor_type;location;lat;lon;timestamp;P1;durP1;ratioP1;P2;durP2;ratioP2
72261;SDS011;60173;52.112;8.648;2023-05-07T00:01:33;28.98;;;20.05;;
72261;SDS011;60173;52.112;8.648;2023-05-07T00:03:59;28.35;;;20.70;;
72261;SDS011;60173;52.112;8.648;2023-05-07T00:06:26;31.88;;;21.33;;
72261;SDS011;60173;52.112;8.648;2023-05-07T00:08:52;35.65;;;21.17;;
72261;SDS011;60173;52.112;8.648;2023-05-07T00:11:18;27.60;;;20.90;;
72261;SDS011;60173;52.112;8.648;2023-05-07T00:13:45;32.70;;;21.27;;
72261;SDS011;60173;52.112;8.648;2023-05-07T00:16:11;31.70;;;21.60;;
72261;SDS011;60173;52.112;8.648;2023-05-07T00:18:37;30.70;;;22.10;;
72261;SDS011;60173;52.112;8.648;2023-05-07T00:21:04;32.83;;;22.33;;
72261;SDS011;60173;52.112;8.648;2023-05-07T00:23:30;28.67;;;20.75;;
72261;SDS011;60173;52.112;8.648;2023-05-07T00:25:56;32.92;;;22.77;;
72261;SDS011;60173;52.112;8.648;2023-05-07T00:28:23;31.45;;;21.67;;
72261;SDS011;60173;52.112;8.648;2023-05-07T00:30:49;34.40;;;22.15;;
72261;SDS011;60173;52.112;8.648;2023-05-07T00:33:15;37.67;;;23.30;;
72261;SDS011;60173;52.112;8.648;2023-05-07T00:35:42;39.97;;;23.50;;
72261;SDS011;60173;52.112;8.648;2023-05-07T00:38:08;34.35;;;22.20;;
72261;SDS011;60173;52.112;8.648;2023-05-07T00:40:35;37.45;;;23.40;;
72261;SDS011;60173;52.112;8.648;2023-05-07T00:43:01;34.47;;;21.98;;
72261;SDS011;60173;52.112;8.648;2023-05-07T00:45:28;31.77;;;21.35;;
72261;SDS011;60173;52.112;8.648;2023-05-07T00:47:55;34.72;;;22.67;;
72261;SDS011;60173;52.112;8.648;2023-05-07T00:50:24;36.60;;;23.50;;
72261;SDS011;60173;52.112;8.648;2023-05-07T00:52:51;31.42;;;22.02;;
72261;SDS011;60173;52.112;8.648;2023-05-07T00:55:18;32.97;;;22.50;;
72261;SDS011;60173;52.112;8.648;2023-05-07T00:57:45;35.42;;;23.02;;
72261;SDS011;60173;52.112;8.648;2023-05-07T01:00:12;35.38;;;23.23;;
72261;SDS011;60173;52.112;8.648;2023-05-07T01:02:40;36.30;;;23.70;;
72261;SDS011;60173;52.112;8.648;2023-05-07T01:05:08;36.53;;;23.95;;
72261;SDS011;60173;52.112;8.648;2023-05-07T01:07:38;33.10;;;22.83;;
72261;SDS011;60173;52.112;8.648;2023-05-07T01:10:06;36.83;;;23.40;;
72261;SDS011;60173;52.112;8.648;2023-05-07T01:12:34;36.08;;;24.83;;
72261;SDS011;60173;52.112;8.648;2023-05-07T01:15:03;37.92;;;23.77;;
72261;SDS011;60173;52.112;8.648;2023-05-07T01:17:40;37.17;;;25.05;;
72261;SDS011;60173;52.112;8.648;2023-05-07T01:20:08;38.55;;;24.85;;
72261;SDS011;60173;52.112;8.648;2023-05-07T01:22:38;38.95;;;25.02;;
72261;SDS011;60173;52.112;8.648;2023-05-07T01:25:06;37.72;;;24.00;;
72261;SDS011;60173;52.112;8.648;2023-05-07T01:27:33;49.83;;;26.75;;
72261;SDS011;60173;52.112;8.648;2023-05-07T01:30:00;36.65;;;24.65;;
72261;SDS011;60173;52.112;8.648;2023-05-07T01:32:43;34.33;;;24.02;;
72261;SDS011;60173;52.112;8.648;2023-05-07T01:35:18;36.80;;;24.13;;
72261;SDS011;60173;52.112;8.648;2023-05-07T01:37:46;38.45;;;24.30;;
72261;SDS011;60173;52.112;8.648;2023-05-07T01:40:14;36.83;;;24.45;;
72261;SDS011;60173;52.112;8.648;2023-05-07T01:42:41;35.05;;;23.90;;
72261;SDS011;60173;52.112;8.648;2023-05-07T01:45:09;34.80;;;24.05;;
72261;SDS011;60173;52.112;8.648;2023-05-07T01:47:36;38.35;;;25.13;;
72261;SDS011;60173;52.112;8.648;2023-05-07T01:50:04;36.13;;;23.90;;
72261;SDS011;60173;52.112;8.648;2023-05-07T01:52:31;36.75;;;24.65;;
72261;SDS011;60173;52.112;8.648;2023-05-07T01:54:58;36.50;;;24.25;;
72261;SDS011;60173;52.112;8.648;2023-05-07T01:57:24;33.80;;;24.15;;
72261;SDS011;60173;52.112;8.648;2023-05-07T01:59:50;39.67;;;25.15;;
72261;SDS011;60173;52.112;8.648;2023-05-07T02:02:17;41.38;;;24.60;;
72261;SDS011;60173;52.112;8.648;2023-05-07T02:04:43;39.15;;;25.45;;
72261;SDS011;60173;52.112;8.648;2023-05-07T02:07:10;36.08;;;24.92;;
72261;SDS011;60173;52.112;8.648;2023-05-07T02:09:36;38.38;;;25.25;;
72261;SDS011;60173;52.112;8.648;2023-05-07T02:12:02;36.92;;;25.17;;
72261;SDS011;60173;52.112;8.648;2023-05-07T02:14:29;40.22;;;25.10;;
72261;SDS011;60173;52.112;8.648;2023-05-07T02:16:55;40.00;;;25.88;;
72261;SDS011;60173;52.112;8.648;2023-05-07T02:19:21;37.15;;;24.75;;
72261;SDS011;60173;52.112;8.648;2023-05-07T02:21:48;38.13;;;24.13;;
72261;SDS011;60173;52.112;8.648;2023-05-07T02:24:14;42.33;;;25.75;;
72261;SDS011;60173;52.112;8.648;2023-05-07T02:26:40;37.08;;;23.60;;
72261;SDS011;60173;52.112;8.648;2023-05-07T02:29:07;36.65;;;25.13;;
72261;SDS011;60173;52.112;8.648;2023-05-07T02:31:33;38.33;;;25.52;;
72261;SDS011;60173;52.112;8.648;2023-05-07T02:34:00;40.95;;;25.38;;
72261;SDS011;60173;52.112;8.648;2023-05-07T02:36:26;38.30;;;24.65;;
72261;SDS011;60173;52.112;8.648;2023-05-07T02:38:53;39.47;;;26.00;;
72261;SDS011;60173;52.112;8.648;2023-05-07T02:41:20;35.55;;;25.17;;
72261;SDS011;60173;52.112;8.648;2023-05-07T02:43:46;39.95;;;26.27;;
72261;SDS011;60173;52.112;8.648;2023-05-07T02:46:13;38.38;;;24.90;;
72261;SDS011;60173;52.112;8.648;2023-05-07T02:48:39;38.20;;;25.23;;
72261;SDS011;60173;52.112;8.648;2023-05-07T02:51:05;37.65;;;24.42;;
72261;SDS011;60173;52.112;8.648;2023-05-07T02:53:32;40.60;;;24.80;;
72261;SDS011;60173;52.112;8.648;2023-05-07T02:55:59;33.58;;;24.00;;
72261;SDS011;60173;52.112;8.648;2023-05-07T02:58:26;40.17;;;24.15;;
72261;SDS011;60173;52.112;8.648;2023-05-07T03:00:53;41.40;;;26.73;;
72261;SDS011;60173;52.112;8.648;2023-05-07T03:03:20;39.10;;;26.80;;
72261;SDS011;60173;52.112;8.648;2023-05-07T03:05:46;45.83;;;26.35;;
72261;SDS011;60173;52.112;8.648;2023-05-07T03:08:12;40.97;;;26.42;;
72261;SDS011;60173;52.112;8.648;2023-05-07T03:10:39;37.95;;;25.48;;
72261;SDS011;60173;52.112;8.648;2023-05-07T03:13:05;39.83;;;27.33;;
72261;SDS011;60173;52.112;8.648;2023-05-07T03:15:32;38.65;;;25.27;;
72261;SDS011;60173;52.112;8.648;2023-05-07T03:17:58;38.33;;;25.77;;
72261;SDS011;60173;52.112;8.648;2023-05-07T03:20:25;36.25;;;25.60;;
72261;SDS011;60173;52.112;8.648;2023-05-07T03:22:51;39.80;;;26.67;;
72261;SDS011;60173;52.112;8.648;2023-05-07T03:25:18;39.33;;;26.25;;
72261;SDS011;60173;52.112;8.648;2023-05-07T03:27:44;40.20;;;26.73;;
72261;SDS011;60173;52.112;8.648;2023-05-07T03:30:10;42.42;;;27.25;;
72261;SDS011;60173;52.112;8.648;2023-05-07T03:32:38;38.17;;;25.73;;
72261;SDS011;60173;52.112;8.648;2023-05-07T03:35:04;40.85;;;26.15;;
72261;SDS011;60173;52.112;8.648;2023-05-07T03:37:31;38.92;;;26.25;;
72261;SDS011;60173;52.112;8.648;2023-05-07T03:39:57;38.08;;;25.70;;
72261;SDS011;60173;52.112;8.648;2023-05-07T03:42:24;40.92;;;25.88;;
72261;SDS011;60173;52.112;8.648;2023-05-07T03:44:50;42.80;;;27.50;;
72261;SDS011;60173;52.112;8.648;2023-05-07T03:47:16;43.28;;;26.40;;
72261;SDS011;60173;52.112;8.648;2023-05-07T03:49:43;41.55;;;25.92;;
72261;SDS011;60173;52.112;8.648;2023-05-07T03:52:09;39.22;;;26.55;;
72261;SDS011;60173;52.112;8.648;2023-05-07T03:54:36;41.67;;;26.90;;
72261;SDS011;60173;52.112;8.648;2023-05-07T03:57:02;40.53;;;27.30;;
72261;SDS011;60173;52.112;8.648;2023-05-07T03:59:28;44.10;;;28.58;;
72261;SDS011;60173;52.112;8.648;2023-05-07T04:01:55;43.67;;;28.40;;
72261;SDS011;60173;52.112;8.648;2023-05-07T04:04:21;43.03;;;27.60;;
72261;SDS011;60173;52.112;8.648;2023-05-07T04:06:48;40.67;;;27.30;;
72261;SDS011;60173;52.112;8.648;2023-05-07T04:09:14;41.53;;;28.35;;
72261;SDS011;60173;52.112;8.648;2023-05-07T04:11:40;41.47;;;26.77;;
72261;SDS011;60173;52.112;8.648;2023-05-07T04:14:07;44.17;;;28.23;;
72261;SDS011;60173;52.112;8.648;2023-05-07T04:16:34;45.15;;;28.25;;
72261;SDS011;60173;52.112;8.648;2023-05-07T04:19:00;45.40;;;27.92;;
72261;SDS011;60173;52.112;8.648;2023-05-07T04:21:27;44.92;;;28.98;;
72261;SDS011;60173;52.112;8.648;2023-05-07T04:23:53;42.92;;;26.42;;
72261;SDS011;60173;52.112;8.648;2023-05-07T04:26:19;40.47;;;27.77;;
72261;SDS011;60173;52.112;8.648;2023-05-07T04:28:46;38.33;;;26.17;;
72261;SDS011;60173;52.112;8.648;2023-05-07T04:31:12;43.80;;;27.95;;
72261;SDS011;60173;52.112;8.648;2023-05-07T04:33:38;41.25;;;26.00;;
72261;SDS011;60173;52.112;8.648;2023-05-07T04:36:05;43.65;;;28.05;;
72261;SDS011;60173;52.112;8.648;2023-05-07T04:38:31;41.13;;;26.95;;
72261;SDS011;60173;52.112;8.648;2023-05-07T04:41:04;43.08;;;28.60;;
72261;SDS011;60173;52.112;8.648;2023-05-07T04:43:30;40.92;;;27.40;;
72261;SDS011;60173;52.112;8.648;2023-05-07T04:45:57;45.67;;;29.58;;
72261;SDS011;60173;52.112;8.648;2023-05-07T04:48:23;45.58;;;28.25;;
72261;SDS011;60173;52.112;8.648;2023-05-07T04:50:50;44.22;;;28.02;;
72261;SDS011;60173;52.112;8.648;2023-05-07T04:53:16;39.67;;;27.42;;
72261;SDS011;60173;52.112;8.648;2023-05-07T04:55:43;42.33;;;26.92;;
72261;SDS011;60173;52.112;8.648;2023-05-07T04:58:10;43.85;;;27.70;;
72261;SDS011;60173;52.112;8.648;2023-05-07T05:00:38;41.35;;;27.45;;
72261;SDS011;60173;52.112;8.648;2023-05-07T05:03:05;45.78;;;28.05;;
72261;SDS011;60173;52.112;8.648;2023-05-07T05:05:35;38.67;;;26.83;;
72261;SDS011;60173;52.112;8.648;2023-05-07T05:08:01;46.80;;;29.13;;
72261;SDS011;60173;52.112;8.648;2023-05-07T05:10:28;44.50;;;27.55;;
72261;SDS011;60173;52.112;8.648;2023-05-07T05:12:54;41.78;;;27.48;;
72261;SDS011;60173;52.112;8.648;2023-05-07T05:15:20;43.83;;;27.40;;
72261;SDS011;60173;52.112;8.648;2023-05-07T05:17:47;41.45;;;27.75;;
72261;SDS011;60173;52.112;8.648;2023-05-07T05:20:13;49.08;;;28.63;;
72261;SDS011;60173;52.112;8.648;2023-05-07T05:22:41;46.55;;;28.30;;
72261;SDS011;60173;52.112;8.648;2023-05-07T05:25:07;40.65;;;26.75;;
72261;SDS011;60173;52.112;8.648;2023-05-07T05:27:34;39.63;;;26.67;;
72261;SDS011;60173;52.112;8.648;2023-05-07T05:30:01;44.97;;;28.20;;
72261;SDS011;60173;52.112;8.648;2023-05-07T05:32:27;45.35;;;28.20;;
72261;SDS011;60173;52.112;8.648;2023-05-07T05:34:53;46.75;;;28.50;;
72261;SDS011;60173;52.112;8.648;2023-05-07T05:37:20;40.10;;;27.23;;
72261;SDS011;60173;52.112;8.648;2023-05-07T05:39:46;43.25;;;27.30;;
72261;SDS011;60173;52.112;8.648;2023-05-07T05:42:12;42.47;;;26.90;;
72261;SDS011;60173;52.112;8.648;2023-05-07T05:44:39;45.17;;;28.23;;
72261;SDS011;60173;52.112;8.648;2023-05-07T05:47:05;43.38;;;27.10;;
72261;SDS011;60173;52.112;8.648;2023-05-07T05:49:31;40.20;;;26.40;;
72261;SDS011;60173;52.112;8.648;2023-05-07T05:51:58;38.58;;;25.90;;
72261;SDS011;60173;52.112;8.648;2023-05-07T05:54:24;39.40;;;25.45;;
72261;SDS011;60173;52.112;8.648;2023-05-07T05:56:50;41.28;;;26.13;;
72261;SDS011;60173;52.112;8.648;2023-05-07T05:59:17;40.40;;;26.48;;
72261;SDS011;60173;52.112;8.648;2023-05-07T06:01:43;35.88;;;23.98;;
72261;SDS011;60173;52.112;8.648;2023-05-07T06:04:09;38.05;;;24.45;;
72261;SDS011;60173;52.112;8.648;2023-05-07T06:06:36;34.80;;;23.98;;
72261;SDS011;60173;52.112;8.648;2023-05-07T06:09:02;39.17;;;25.23;;
72261;SDS011;60173;52.112;8.648;2023-05-07T06:11:29;34.90;;;23.38;;
72261;SDS011;60173;52.112;8.648;2023-05-07T06:13:55;31.02;;;22.05;;
72261;SDS011;60173;52.112;8.648;2023-05-07T06:16:21;35.17;;;21.42;;
72261;SDS011;60173;52.112;8.648;2023-05-07T06:18:48;34.70;;;21.85;;
72261;SDS011;60173;52.112;8.648;2023-05-07T06:21:14;30.98;;;21.00;;
72261;SDS011;60173;52.112;8.648;2023-05-07T06:23:40;29.33;;;20.85;;
72261;SDS011;60173;52.112;8.648;2023-05-07T06:26:07;32.83;;;21.58;;
72261;SDS011;60173;52.112;8.648;2023-05-07T06:28:33;34.97;;;22.23;;
72261;SDS011;60173;52.112;8.648;2023-05-07T06:31:10;28.75;;;19.77;;
72261;SDS011;60173;52.112;8.648;2023-05-07T06:33:37;30.77;;;19.17;;
72261;SDS011;60173;52.112;8.648;2023-05-07T06:36:04;31.00;;;19.73;;
72261;SDS011;60173;52.112;8.648;2023-05-07T06:38:30;28.27;;;19.33;;
72261;SDS011;60173;52.112;8.648;2023-05-07T06:40:57;27.42;;;18.42;;
72261;SDS011;60173;52.112;8.648;2023-05-07T06:43:23;25.88;;;17.52;;
72261;SDS011;60173;52.112;8.648;2023-05-07T06:45:49;28.65;;;18.02;;
72261;SDS011;60173;52.112;8.648;2023-05-07T06:48:16;26.67;;;17.52;;
72261;SDS011;60173;52.112;8.648;2023-05-07T06:50:42;26.17;;;16.45;;
72261;SDS011;60173;52.112;8.648;2023-05-07T06:53:08;25.88;;;17.35;;
72261;SDS011;60173;52.112;8.648;2023-05-07T06:55:35;24.00;;;17.08;;
72261;SDS011;60173;52.112;8.648;2023-05-07T06:58:01;21.65;;;16.08;;
72261;SDS011;60173;52.112;8.648;2023-05-07T07:00:27;24.45;;;15.88;;
72261;SDS011;60173;52.112;8.648;2023-05-07T07:02:54;24.15;;;16.67;;
72261;SDS011;60173;52.112;8.648;2023-05-07T07:05:21;23.30;;;16.20;;
72261;SDS011;60173;52.112;8.648;2023-05-07T07:07:47;23.27;;;16.10;;
72261;SDS011;60173;52.112;8.648;2023-05-07T07:10:13;22.80;;;15.90;;
72261;SDS011;60173;52.112;8.648;2023-05-07T07:12:40;24.88;;;16.40;;
72261;SDS011;60173;52.112;8.648;2023-05-07T07:15:06;21.92;;;15.68;;
72261;SDS011;60173;52.112;8.648;2023-05-07T07:17:33;21.77;;;15.52;;
72261;SDS011;60173;52.112;8.648;2023-05-07T07:19:59;22.42;;;14.90;;
72261;SDS011;60173;52.112;8.648;2023-05-07T07:22:25;23.95;;;15.43;;
72261;SDS011;60173;52.112;8.648;2023-05-07T07:24:52;23.25;;;14.98;;
72261;SDS011;60173;52.112;8.648;2023-05-07T07:27:18;20.60;;;14.88;;
72261;SDS011;60173;52.112;8.648;2023-05-07T07:29:44;20.50;;;14.15;;
72261;SDS011;60173;52.112;8.648;2023-05-07T07:32:11;21.95;;;14.20;;
72261;SDS011;60173;52.112;8.648;2023-05-07T07:34:37;21.67;;;15.07;;
72261;SDS011;60173;52.112;8.648;2023-05-07T07:37:03;20.27;;;13.73;;
72261;SDS011;60173;52.112;8.648;2023-05-07T07:39:30;23.95;;;13.27;;
72261;SDS011;60173;52.112;8.648;2023-05-07T07:41:56;18.55;;;13.20;;
72261;SDS011;60173;52.112;8.648;2023-05-07T07:44:22;17.85;;;12.50;;
72261;SDS011;60173;52.112;8.648;2023-05-07T07:46:49;17.00;;;12.30;;
72261;SDS011;60173;52.112;8.648;2023-05-07T07:49:15;19.23;;;13.10;;
72261;SDS011;60173;52.112;8.648;2023-05-07T07:51:42;18.92;;;13.20;;
72261;SDS011;60173;52.112;8.648;2023-05-07T07:54:08;16.77;;;12.38;;
72261;SDS011;60173;52.112;8.648;2023-05-07T07:56:35;17.27;;;11.43;;
72261;SDS011;60173;52.112;8.648;2023-05-07T07:59:01;18.92;;;11.70;;
72261;SDS011;60173;52.112;8.648;2023-05-07T08:01:29;17.05;;;11.82;;
72261;SDS011;60173;52.112;8.648;2023-05-07T08:03:56;16.60;;;11.50;;
72261;SDS011;60173;52.112;8.648;2023-05-07T08:06:23;15.70;;;11.32;;
72261;SDS011;60173;52.112;8.648;2023-05-07T08:08:49;15.25;;;10.73;;
72261;SDS011;60173;52.112;8.648;2023-05-07T08:11:15;15.82;;;10.27;;
72261;SDS011;60173;52.112;8.648;2023-05-07T08:13:42;15.75;;;10.75;;
72261;SDS011;60173;52.112;8.648;2023-05-07T08:16:08;15.75;;;11.50;;
72261;SDS011;60173;52.112;8.648;2023-05-07T08:18:35;14.02;;;10.20;;
72261;SDS011;60173;52.112;8.648;2023-05-07T08:21:01;15.30;;;10.63;;
72261;SDS011;60173;52.112;8.648;2023-05-07T08:23:28;14.55;;;10.48;;
72261;SDS011;60173;52.112;8.648;2023-05-07T08:25:54;15.75;;;10.68;;
72261;SDS011;60173;52.112;8.648;2023-05-07T08:28:20;13.68;;;10.32;;
72261;SDS011;60173;52.112;8.648;2023-05-07T08:30:47;15.18;;;9.90;;
72261;SDS011;60173;52.112;8.648;2023-05-07T08:33:13;11.85;;;9.25;;
72261;SDS011;60173;52.112;8.648;2023-05-07T08:35:40;11.88;;;9.20;;
72261;SDS011;60173;52.112;8.648;2023-05-07T08:38:06;12.63;;;9.50;;
72261;SDS011;60173;52.112;8.648;2023-05-07T08:40:35;12.43;;;9.05;;
72261;SDS011;60173;52.112;8.648;2023-05-07T08:43:05;11.63;;;8.80;;
72261;SDS011;60173;52.112;8.648;2023-05-07T08:45:34;14.07;;;9.65;;
72261;SDS011;60173;52.112;8.648;2023-05-07T08:48:02;12.93;;;8.98;;
72261;SDS011;60173;52.112;8.648;2023-05-07T08:50:31;12.00;;;8.85;;
72261;SDS011;60173;52.112;8.648;2023-05-07T08:52:57;13.77;;;9.48;;
72261;SDS011;60173;52.112;8.648;2023-05-07T08:55:24;12.45;;;9.35;;
72261;SDS011;60173;52.112;8.648;2023-05-07T08:57:50;15.05;;;9.95;;
72261;SDS011;60173;52.112;8.648;2023-05-07T09:00:17;12.32;;;8.80;;
72261;SDS011;60173;52.112;8.648;2023-05-07T09:02:43;13.73;;;9.85;;
72261;SDS011;60173;52.112;8.648;2023-05-07T09:05:10;12.50;;;9.55;;
72261;SDS011;60173;52.112;8.648;2023-05-07T09:07:37;12.25;;;9.05;;
72261;SDS011;60173;52.112;8.648;2023-05-07T09:10:03;11.02;;;8.48;;
72261;SDS011;60173;52.112;8.648;2023-05-07T09:12:30;9.98;;;7.85;;
72261;SDS011;60173;52.112;8.648;2023-05-07T09:14:57;11.98;;;8.48;;
72261;SDS011;60173;52.112;8.648;2023-05-07T09:17:25;12.05;;;8.43;;
72261;SDS011;60173;52.112;8.648;2023-05-07T09:19:51;10.90;;;8.23;;
72261;SDS011;60173;52.112;8.648;2023-05-07T09:22:18;11.82;;;8.43;;
72261;SDS011;60173;52.112;8.648;2023-05-07T09:24:48;12.45;;;8.48;;
72261;SDS011;60173;52.112;8.648;2023-05-07T09:27:17;11.40;;;8.25;;
72261;SDS011;60173;52.112;8.648;2023-05-07T09:29:44;11.00;;;8.40;;
72261;SDS011;60173;52.112;8.648;2023-05-07T09:32:10;11.93;;;8.90;;
72261;SDS011;60173;52.112;8.648;2023-05-07T09:34:37;10.35;;;8.13;;
72261;SDS011;60173;52.112;8.648;2023-05-07T09:37:03;12.45;;;9.07;;
72261;SDS011;60173;52.112;8.648;2023-05-07T09:39:41;12.13;;;8.63;;
72261;SDS011;60173;52.112;8.648;2023-05-07T09:42:08;12.23;;;9.27;;
72261;SDS011;60173;52.112;8.648;2023-05-07T09:44:35;11.18;;;8.05;;
72261;SDS011;60173;52.112;8.648;2023-05-07T09:47:02;12.35;;;8.55;;
72261;SDS011;60173;52.112;8.648;2023-05-07T09:49:33;9.88;;;7.65;;
72261;SDS011;60173;52.112;8.648;2023-05-07T09:52:02;11.98;;;8.90;;
72261;SDS011;60173;52.112;8.648;2023-05-07T09:54:30;11.63;;;8.35;;
72261;SDS011;60173;52.112;8.648;2023-05-07T09:56:57;13.63;;;9.27;;
72261;SDS011;60173;52.112;8.648;2023-05-07T09:59:24;12.27;;;9.25;;
72261;SDS011;60173;52.112;8.648;2023-05-07T10:01:56;11.65;;;8.82;;
72261;SDS011;60173;52.112;8.648;2023-05-07T10:04:24;12.70;;;8.30;;
72261;SDS011;60173;52.112;8.648;2023-05-07T10:06:51;11.57;;;8.25;;
72261;SDS011;60173;52.112;8.648;2023-05-07T10:09:19;12.07;;;8.77;;
72261;SDS011;60173;52.112;8.648;2023-05-07T10:11:47;12.30;;;8.63;;
72261;SDS011;60173;52.112;8.648;2023-05-07T10:14:15;10.52;;;7.55;;
72261;SDS011;60173;52.112;8.648;2023-05-07T10:16:41;10.90;;;8.35;;
72261;SDS011;60173;52.112;8.648;2023-05-07T10:19:08;10.88;;;7.80;;
72261;SDS011;60173;52.112;8.648;2023-05-07T10:21:46;10.70;;;8.38;;
72261;SDS011;60173;52.112;8.648;2023-05-07T10:24:29;11.32;;;8.02;;
72261;SDS011;60173;52.112;8.648;2023-05-07T10:26:58;10.07;;;7.05;;
72261;SDS011;60173;52.112;8.648;2023-05-07T10:32:09;11.15;;;7.97;;
72261;SDS011;60173;52.112;8.648;2023-05-07T10:34:40;9.85;;;7.70;;
72261;SDS011;60173;52.112;8.648;2023-05-07T10:37:09;10.40;;;7.57;;
72261;SDS011;60173;52.112;8.648;2023-05-07T10:39:37;9.73;;;7.63;;
72261;SDS011;60173;52.112;8.648;2023-05-07T10:42:10;11.07;;;6.70;;
72261;SDS011;60173;52.112;8.648;2023-05-07T10:44:38;10.95;;;7.18;;
72261;SDS011;60173;52.112;8.648;2023-05-07T10:47:11;8.55;;;6.18;;
72261;SDS011;60173;52.112;8.648;2023-05-07T10:52:15;6.95;;;5.70;;
72261;SDS011;60173;52.112;8.648;2023-05-07T10:54:46;9.57;;;6.53;;
72261;SDS011;60173;52.112;8.648;2023-05-07T10:57:55;7.28;;;6.43;;
72261;SDS011;60173;52.112;8.648;2023-05-07T11:00:03;7.15;;;6.10;;
72261;SDS011;60173;52.112;8.648;2023-05-07T11:03:07;9.80;;;6.30;;
72261;SDS011;60173;52.112;8.648;2023-05-07T11:05:34;8.40;;;6.18;;
72261;SDS011;60173;52.112;8.648;2023-05-07T11:08:04;7.32;;;4.95;;
72261;SDS011;60173;52.112;8.648;2023-05-07T11:10:50;7.25;;;5.03;;
72261;SDS011;60173;52.112;8.648;2023-05-07T11:13:18;7.03;;;5.97;;
72261;SDS011;60173;52.112;8.648;2023-05-07T11:16:15;6.93;;;5.20;;
72261;SDS011;60173;52.112;8.648;2023-05-07T11:18:46;7.40;;;5.50;;
72261;SDS011;60173;52.112;8.648;2023-05-07T11:21:31;8.00;;;5.80;;
72261;SDS011;60173;52.112;8.648;2023-05-07T11:23:59;6.72;;;5.30;;
72261;SDS011;60173;52.112;8.648;2023-05-07T11:26:27;6.88;;;5.00;;
72261;SDS011;60173;52.112;8.648;2023-05-07T11:28:55;6.47;;;4.65;;
72261;SDS011;60173;52.112;8.648;2023-05-07T11:31:22;6.63;;;5.15;;
72261;SDS011;60173;52.112;8.648;2023-05-07T11:33:51;6.13;;;5.18;;
72261;SDS011;60173;52.112;8.648;2023-05-07T11:36:18;5.80;;;4.90;;
72261;SDS011;60173;52.112;8.648;2023-05-07T11:38:44;6.28;;;4.75;;
72261;SDS011;60173;52.112;8.648;2023-05-07T11:41:11;7.05;;;5.13;;
72261;SDS011;60173;52.112;8.648;2023-05-07T11:43:37;6.38;;;4.93;;
72261;SDS011;60173;52.112;8.648;2023-05-07T11:48:37;5.25;;;4.43;;
72261;SDS011;60173;52.112;8.648;2023-05-07T11:51:05;5.80;;;4.07;;
72261;SDS011;60173;52.112;8.648;2023-05-07T11:53:36;6.85;;;4.10;;
72261;SDS011;60173;52.112;8.648;2023-05-07T11:56:10;4.38;;;3.97;;
72261;SDS011;60173;52.112;8.648;2023-05-07T11:58:40;5.28;;;3.75;;
72261;SDS011;60173;52.112;8.648;2023-05-07T12:01:07;5.13;;;3.85;;
72261;SDS011;60173;52.112;8.648;2023-05-07T12:03:35;6.82;;;5.00;;
72261;SDS011;60173;52.112;8.648;2023-05-07T12:06:05;4.57;;;4.07;;
72261;SDS011;60173;52.112;8.648;2023-05-07T12:08:32;6.13;;;3.88;;
72261;SDS011;60173;52.112;8.648;2023-05-07T12:10:58;4.60;;;4.07;;
72261;SDS011;60173;52.112;8.648;2023-05-07T12:13:26;5.28;;;4.03;;
72261;SDS011;60173;52.112;8.648;2023-05-07T12:15:53;5.07;;;3.85;;
72261;SDS011;60173;52.112;8.648;2023-05-07T12:18:21;5.60;;;4.20;;
72261;SDS011;60173;52.112;8.648;2023-05-07T12:20:49;4.40;;;3.95;;
72261;SDS011;60173;52.112;8.648;2023-05-07T12:23:16;4.88;;;3.60;;
72261;SDS011;60173;52.112;8.648;2023-05-07T12:25:43;7.53;;;4.15;;
72261;SDS011;60173;52.112;8.648;2023-05-07T12:28:12;3.53;;;3.20;;
72261;SDS011;60173;52.112;8.648;2023-05-07T12:30:39;6.70;;;4.03;;
72261;SDS011;60173;52.112;8.648;2023-05-07T12:33:06;5.63;;;4.20;;
72261;SDS011;60173;52.112;8.648;2023-05-07T12:35:37;6.60;;;4.18;;
72261;SDS011;60173;52.112;8.648;2023-05-07T12:38:15;3.60;;;3.17;;
72261;SDS011;60173;52.112;8.648;2023-05-07T12:40:46;4.47;;;3.63;;
72261;SDS011;60173;52.112;8.648;2023-05-07T12:43:15;4.38;;;3.22;;
72261;SDS011;60173;52.112;8.648;2023-05-07T12:45:46;3.95;;;3.42;;
72261;SDS011;60173;52.112;8.648;2023-05-07T12:48:14;6.55;;;3.47;;
72261;SDS011;60173;52.112;8.648;2023-05-07T12:50:41;5.72;;;3.58;;
72261;SDS011;60173;52.112;8.648;2023-05-07T12:53:07;6.60;;;3.47;;
72261;SDS011;60173;52.112;8.648;2023-05-07T12:55:42;4.32;;;3.47;;
72261;SDS011;60173;52.112;8.648;2023-05-07T12:58:16;6.20;;;3.58;;
72261;SDS011;60173;52.112;8.648;2023-05-07T13:00:44;4.80;;;3.70;;
72261;SDS011;60173;52.112;8.648;2023-05-07T13:03:11;6.40;;;3.78;;
72261;SDS011;60173;52.112;8.648;2023-05-07T13:05:38;4.85;;;3.85;;
72261;SDS011;60173;52.112;8.648;2023-05-07T13:08:05;6.13;;;4.15;;
72261;SDS011;60173;52.112;8.648;2023-05-07T13:10:31;4.97;;;4.25;;
72261;SDS011;60173;52.112;8.648;2023-05-07T13:12:58;6.60;;;4.05;;
72261;SDS011;60173;52.112;8.648;2023-05-07T13:15:24;5.85;;;3.97;;
72261;SDS011;60173;52.112;8.648;2023-05-07T13:17:50;5.57;;;3.60;;
72261;SDS011;60173;52.112;8.648;2023-05-07T13:20:17;6.15;;;3.75;;
72261;SDS011;60173;52.112;8.648;2023-05-07T13:22:43;5.10;;;3.70;;
72261;SDS011;60173;52.112;8.648;2023-05-07T13:25:10;5.22;;;3.65;;
72261;SDS011;60173;52.112;8.648;2023-05-07T13:27:36;4.60;;;3.72;;
72261;SDS011;60173;52.112;8.648;2023-05-07T13:30:04;7.68;;;4.10;;
72261;SDS011;60173;52.112;8.648;2023-05-07T13:32:31;7.28;;;3.95;;
72261;SDS011;60173;52.112;8.648;2023-05-07T13:34:57;4.95;;;4.30;;
72261;SDS011;60173;52.112;8.648;2023-05-07T13:37:23;5.05;;;3.90;;
72261;SDS011;60173;52.112;8.648;2023-05-07T13:39:50;7.00;;;4.65;;
72261;SDS011;60173;52.112;8.648;2023-05-07T13:42:16;5.65;;;4.10;;
72261;SDS011;60173;52.112;8.648;2023-05-07T13:44:43;9.20;;;5.78;;
72261;SDS011;60173;52.112;8.648;2023-05-07T13:47:10;6.20;;;4.95;;
72261;SDS011;60173;52.112;8.648;2023-05-07T13:49:36;4.78;;;3.90;;
72261;SDS011;60173;52.112;8.648;2023-05-07T13:52:03;6.35;;;4.20;;
72261;SDS011;60173;52.112;8.648;2023-05-07T13:54:29;5.22;;;4.38;;
72261;SDS011;60173;52.112;8.648;2023-05-07T13:56:56;5.45;;;4.40;;
72261;SDS011;60173;52.112;8.648;2023-05-07T13:59:22;6.70;;;4.35;;
72261;SDS011;60173;52.112;8.648;2023-05-07T14:01:48;7.60;;;5.00;;
72261;SDS011;60173;52.112;8.648;2023-05-07T14:04:15;5.32;;;4.80;;
72261;SDS011;60173;52.112;8.648;2023-05-07T14:06:41;5.60;;;4.63;;
72261;SDS011;60173;52.112;8.648;2023-05-07T14:09:07;6.55;;;4.82;;
72261;SDS011;60173;52.112;8.648;2023-05-07T14:11:34;7.00;;;4.93;;
72261;SDS011;60173;52.112;8.648;2023-05-07T14:14:01;5.32;;;4.50;;
72261;SDS011;60173;52.112;8.648;2023-05-07T14:16:27;7.82;;;5.00;;
72261;SDS011;60173;52.112;8.648;2023-05-07T14:18:54;5.60;;;4.60;;
72261;SDS011;60173;52.112;8.648;2023-05-07T14:21:23;6.03;;;4.90;;
72261;SDS011;60173;52.112;8.648;2023-05-07T14:23:49;6.15;;;5.15;;
72261;SDS011;60173;52.112;8.648;2023-05-07T14:26:16;6.10;;;5.25;;
72261;SDS011;60173;52.112;8.648;2023-05-07T14:28:42;6.72;;;5.32;;
72261;SDS011;60173;52.112;8.648;2023-05-07T14:31:08;6.15;;;4.80;;
72261;SDS011;60173;52.112;8.648;2023-05-07T14:33:35;6.78;;;5.60;;
72261;SDS011;60173;52.112;8.648;2023-05-07T14:36:01;8.05;;;5.57;;
72261;SDS011;60173;52.112;8.648;2023-05-07T14:38:27;6.75;;;5.05;;
72261;SDS011;60173;52.112;8.648;2023-05-07T14:40:54;6.57;;;4.63;;